Time;durP1;ratioP1;P1;durP2;ratioP2;P2;SDS_P1;SDS_P2;PMS_P1;PMS_P2;Temp;Humidity;BMP_temperature;BMP_pressure;BME280_temperature;BME280_humidity;BME280_pressure;Samples;Min_cycle;Max_cycle;Signal;HPM_P1;HPM_P2
2022/06/13 00:02:10;;;;;;;;;3.75;3.75;;;;;17.34;46.66;102031.69;6245814;22;45192;-81
2022/06/13 00:04:35;;;;;;;;;5.75;5.00;;;;;17.34;46.92;102033.50;6217387;22;45522;-80
2022/06/13 00:07:01;;;;;;;;;5.25;3.75;;;;;17.32;47.22;102037.94;6247070;22;45766;-81
2022/06/13 00:09:28;;;;;;;;;2.50;2.50;;;;;17.28;46.96;102031.78;6247935;22;45341;-91
2022/06/13 00:11:53;;;;;;;;;3.00;3.00;;;;;17.26;46.66;102041.56;6248380;22;45379;-81
2022/06/13 00:14:19;;;;;;;;;2.50;2.50;;;;;17.21;47.44;102035.41;6245988;22;45371;-81
2022/06/13 00:16:45;;;;;;;;;4.00;2.50;;;;;17.18;47.21;102040.75;6244013;22;47365;-81
2022/06/13 00:19:10;;;;;;;;;3.75;3.75;;;;;17.16;47.00;102031.91;6245843;22;45292;-81
2022/06/13 00:21:37;;;;;;;;;3.00;2.50;;;;;17.13;47.67;102031.94;6248229;22;45334;-81
2022/06/13 00:24:05;;;;;;;;;2.00;2.00;;;;;17.09;47.44;102023.09;6220608;22;45127;-81
2022/06/13 00:26:33;;;;;;;;;3.50;3.00;;;;;17.08;47.64;102037.31;6246026;22;46697;-81
2022/06/13 00:28:59;;;;;;;;;3.75;1.75;;;;;17.02;47.88;102026.72;6247217;22;45362;-81
2022/06/13 00:31:25;;;;;;;;;2.00;1.00;;;;;16.99;48.02;102037.41;6220727;22;45266;-81
2022/06/13 00:33:51;;;;;;;;;1.00;1.00;;;;;16.93;47.98;102030.34;6248129;22;45441;-81
2022/06/13 00:36:17;;;;;;;;;5.00;5.00;;;;;16.91;48.09;102032.16;6247711;22;45221;-81
2022/06/13 00:38:43;;;;;;;;;2.00;2.00;;;;;16.87;48.06;102026.88;6245940;22;45540;-81
2022/06/13 00:41:16;;;;;;;;;4.00;4.00;;;;;16.80;48.81;102026.03;6248206;22;45114;-81
2022/06/13 00:43:44;;;;;;;;;2.00;2.00;;;;;16.76;48.55;102022.50;6248019;22;45161;-81
2022/06/13 00:46:21;;;;;;;;;2.25;2.25;;;;;16.74;49.04;102028.75;6247833;22;46170;-81
2022/06/13 00:48:53;;;;;;;;;4.00;3.00;;;;;16.68;49.09;102019.03;6248097;22;45388;-80
2022/06/13 00:51:19;;;;;;;;;5.00;4.75;;;;;16.70;49.23;102021.66;6219426;22;45217;-81
2022/06/13 00:53:45;;;;;;;;;4.00;3.00;;;;;16.68;49.12;102020.78;6247640;22;45539;-80
2022/06/13 00:56:16;;;;;;;;;2.25;2.25;;;;;16.69;49.25;102011.94;6219846;22;46986;-81
2022/06/13 00:58:51;;;;;;;;;3.50;3.50;;;;;16.66;49.58;102009.31;6220776;22;45244;-80
2022/06/13 01:01:18;;;;;;;;;3.50;2.00;;;;;16.64;49.56;102003.13;6221367;22;45226;-81
2022/06/13 01:03:44;;;;;;;;;6.50;3.00;;;;;16.63;49.64;102009.34;6220243;22;45269;-81
2022/06/13 01:06:11;;;;;;;;;4.75;3.50;;;;;16.62;49.47;102008.44;6220253;22;46844;-81
2022/06/13 01:08:38;;;;;;;;;4.25;2.75;;;;;16.65;49.61;102013.75;6220104;22;45391;-80
2022/06/13 01:11:18;;;;;;;;;3.25;3.25;;;;;16.63;50.16;102012.00;6246075;22;45391;-81
2022/06/13 01:13:44;;;;;;;;;4.75;4.00;;;;;16.57;50.01;102010.25;6220308;22;45190;-81
2022/06/13 01:16:41;;;;;;;;;3.00;3.00;;;;;16.49;50.09;102002.34;6247502;22;45471;-81
2022/06/13 01:19:35;;;;;;;;;3.00;3.00;;;;;16.49;50.52;102009.41;6188851;22;45382;-81
2022/06/13 01:22:12;;;;;;;;;4.25;2.75;;;;;16.43;50.65;102004.16;6247695;22;45400;-81
2022/06/13 01:25:01;;;;;;;;;4.75;4.00;;;;;16.37;50.47;101999.78;6219986;22;45530;-80
2022/06/13 01:27:54;;;;;;;;;5.00;3.25;;;;;16.32;50.85;101994.50;6221037;22;47151;-80
2022/06/13 01:30:51;;;;;;;;;4.00;4.00;;;;;16.26;50.92;101988.34;6208344;22;45903;-81
2022/06/13 01:33:25;;;;;;;;;3.75;2.75;;;;;16.24;51.16;101984.81;6199959;22;45521;-81
2022/06/13 01:35:50;;;;;;;;;4.50;3.25;;;;;16.26;50.99;101989.22;6219566;22;45393;-81
2022/06/13 01:38:25;;;;;;;;;2.25;2.25;;;;;16.25;51.34;101997.19;6220788;22;47071;-80
2022/06/13 01:41:05;;;;;;;;;5.50;4.00;;;;;16.22;51.64;102000.75;6220687;22;45241;-81
2022/06/13 01:43:45;;;;;;;;;6.00;4.00;;;;;16.16;51.38;101999.94;6220789;22;45378;-80
2022/06/13 01:46:28;;;;;;;;;3.75;3.75;;;;;16.16;51.72;102003.47;6220098;22;45379;-80
2022/06/13 01:49:05;;;;;;;;;4.00;4.00;;;;;16.13;51.70;102008.81;6247553;22;45319;-80
2022/06/13 01:51:45;;;;;;;;;4.25;4.25;;;;;16.11;51.76;102005.28;6219741;22;45803;-80
2022/06/13 01:54:27;;;;;;;;;3.50;3.25;;;;;16.13;52.06;102010.59;6219997;22;45407;-81
2022/06/13 01:57:24;;;;;;;;;4.00;4.00;;;;;16.12;52.27;102004.41;6220776;22;45268;-81
2022/06/13 02:00:10;;;;;;;;;5.00;5.00;;;;;16.10;52.31;101998.19;6219831;22;47306;-80
2022/06/13 02:02:51;;;;;;;;;5.25;5.00;;;;;16.07;51.99;101999.09;6220714;22;45419;-81
2022/06/13 02:05:24;;;;;;;;;6.25;4.75;;;;;16.07;52.59;102006.19;6235121;22;45169;-81
2022/06/13 02:08:01;;;;;;;;;4.00;4.00;;;;;16.04;52.76;102000.91;6221232;22;45634;-80
2022/06/13 02:10:31;;;;;;;;;5.50;4.75;;;;;16.02;52.90;102005.34;6246276;22;48195;-81
2022/06/13 02:13:05;;;;;;;;;2.75;2.75;;;;;15.98;52.96;102003.56;6221309;22;45284;-80
2022/06/13 02:15:41;;;;;;;;;3.00;3.00;;;;;16.01;53.20;102006.22;6221640;22;45335;-80
2022/06/13 02:18:23;;;;;;;;;5.00;3.50;;;;;15.93;53.14;101995.66;6221354;22;45202;-81
2022/06/13 02:20:54;;;;;;;;;6.75;5.00;;;;;15.93;53.06;102006.28;6220789;22;47801;-80
2022/06/13 02:23:24;;;;;;;;;6.50;4.00;;;;;15.94;53.18;102000.06;6221005;22;45359;-81
2022/06/13 02:26:00;;;;;;;;;6.25;4.75;;;;;15.89;53.62;101988.59;6249993;22;45365;-81
2022/06/13 02:28:36;;;;;;;;;6.00;5.25;;;;;15.88;53.51;101993.03;6220972;22;45774;-81
2022/06/13 02:31:37;;;;;;;;;5.25;5.25;;;;;15.91;53.39;101996.56;6248950;22;46154;-81
2022/06/13 02:34:18;;;;;;;;;3.00;3.00;;;;;15.87;53.14;101993.91;6246636;22;45247;-82
2022/06/13 02:36:52;;;;;;;;;6.75;4.25;;;;;15.83;53.73;101996.59;6248626;22;45284;-81
2022/06/13 02:39:24;;;;;;;;;5.75;3.25;;;;;15.80;53.81;101994.84;6221139;22;45875;-81
2022/06/13 02:42:20;;;;;;;;;4.00;4.00;;;;;15.78;54.03;101999.25;6246837;22;47566;-81
2022/06/13 02:45:01;;;;;;;;;5.67;4.33;;;;;15.72;54.19;101995.78;6214923;22;45419;-80
2022/06/13 02:47:40;;;;;;;;;3.67;3.67;;;;;15.69;54.25;101990.44;6248897;22;45378;-81
2022/06/13 02:50:16;;;;;;;;;3.00;3.00;;;;;15.59;54.31;101995.78;6246654;22;45375;-81
2022/06/13 02:52:57;;;;;;;;;7.75;6.50;;;;;15.59;54.34;102001.09;6220746;22;47039;-81
2022/06/13 02:55:23;;;;;;;;;3.00;3.00;;;;;15.52;54.48;101991.38;6248595;22;45165;-81
2022/06/13 02:58:16;;;;;;;;;7.25;6.25;;;;;15.53;54.28;102003.78;6248583;22;45168;-81
2022/06/13 03:00:59;;;;;;;;;6.25;5.25;;;;;15.46;54.26;101995.84;6220613;22;45254;-81
2022/06/13 03:03:43;;;;;;;;;6.75;6.50;;;;;15.42;54.45;102002.91;6248095;22;46380;-80
2022/06/13 03:06:20;;;;;;;;;5.25;5.00;;;;;15.34;54.89;102005.63;6220315;22;45435;-81
2022/06/13 03:08:53;;;;;;;;;7.00;5.00;;;;;15.29;54.72;102009.16;6249183;22;45264;-80
2022/06/13 03:11:37;;;;;;;;;6.00;4.25;;;;;15.23;54.89;102004.75;6220974;22;45475;-81
2022/06/13 03:14:30;;;;;;;;;6.75;4.25;;;;;15.15;55.27;102007.41;6249472;22;45351;-81
2022/06/13 03:17:03;;;;;;;;;6.00;4.25;;;;;15.07;55.80;102006.53;6246164;22;45387;-81
2022/06/13 03:19:41;;;;;;;;;4.25;4.25;;;;;15.11;56.35;102026.00;6247312;22;45238;-82
2022/06/13 03:22:14;;;;;;;;;8.00;6.75;;;;;15.10;56.58;102016.28;6220364;22;45686;-81
2022/06/13 03:24:50;;;;;;;;;6.00;6.00;;;;;15.09;56.44;102022.47;6221048;22;48256;-81
2022/06/13 03:27:29;;;;;;;;;7.00;4.00;;;;;15.05;56.31;102028.66;6220215;22;45799;-81
2022/06/13 03:30:07;;;;;;;;;7.00;7.00;;;;;15.02;56.46;102024.25;6220918;22;45390;-81
2022/06/13 03:32:38;;;;;;;;;7.00;6.00;;;;;14.95;56.42;102018.06;6249169;22;45216;-80
2022/06/13 03:35:11;;;;;;;;;5.00;4.25;;;;;14.95;56.68;102030.47;6245696;22;47520;-81
2022/06/13 03:37:47;;;;;;;;;4.00;3.75;;;;;14.94;56.68;102042.84;6221139;22;45387;-81
2022/06/13 03:40:19;;;;;;;;;4.00;3.50;;;;;14.93;56.68;102040.19;6246084;22;45415;-81
2022/06/13 03:43:08;;;;;;;;;6.00;6.00;;;;;14.89;56.83;102036.66;6249271;22;45177;-81
2022/06/13 03:45:50;;;;;;;;;5.50;3.75;;;;;14.88;57.17;102039.28;6248351;22;46475;-81
2022/06/13 03:48:24;;;;;;;;;5.00;5.00;;;;;14.88;57.02;102039.28;6246832;22;45424;-81
2022/06/13 03:51:00;;;;;;;;;5.75;5.75;;;;;14.87;57.23;102041.06;6220289;22;45142;-80
2022/06/13 03:53:42;;;;;;;;;6.25;4.75;;;;;14.87;57.41;102045.50;6248683;22;45241;-81
2022/06/13 03:56:47;;;;;;;;;6.75;6.00;;;;;14.85;57.39;102041.94;6248881;22;46445;-81
2022/06/13 03:59:22;;;;;;;;;5.00;4.50;;;;;14.85;57.39;102041.94;6220610;22;45290;-80
2022/06/13 04:01:54;;;;;;;;;4.00;4.00;;;;;14.86;57.72;102041.97;6246861;22;45195;-81
2022/06/13 04:04:25;;;;;;;;;3.00;2.50;;;;;14.87;57.41;102037.53;6248001;22;45268;-81
2022/06/13 04:06:51;;;;;;;;;5.00;4.00;;;;;14.86;57.65;102038.41;6246020;22;48055;-81
2022/06/13 04:09:19;;;;;;;;;5.75;3.25;;;;;14.88;57.55;102040.16;6246104;22;45343;-81
2022/06/13 04:11:45;;;;;;;;;7.50;6.00;;;;;14.88;57.48;102042.81;6221592;22;45348;-80
2022/06/13 04:14:33;;;;;;;;;6.75;6.00;;;;;14.88;57.55;102044.59;6220888;22;45291;-81
2022/06/13 04:17:21;;;;;;;;;7.50;6.25;;;;;14.83;57.69;102043.72;6235057;22;45253;-80
2022/06/13 04:20:03;;;;;;;;;8.00;8.00;;;;;14.84;57.78;102046.38;6247724;22;45403;-81
2022/06/13 04:22:38;;;;;;;;;7.00;7.00;;;;;14.80;57.92;102033.13;6248977;22;45221;-81
2022/06/13 04:25:23;;;;;;;;;5.00;5.00;;;;;14.87;58.29;102048.16;6221373;22;45391;-81
2022/06/13 04:28:08;;;;;;;;;8.50;8.25;;;;;14.87;58.06;102046.38;6220213;22;45351;-81
2022/06/13 04:30:36;;;;;;;;;6.25;6.25;;;;;14.85;58.30;102041.94;6220324;22;45908;-80
2022/06/13 04:33:20;;;;;;;;;9.00;8.25;;;;;14.84;58.19;102048.16;6220663;22;45257;-80
2022/06/13 04:35:47;;;;;;;;;7.25;7.00;;;;;14.87;58.13;102050.78;6246458;22;45196;-80
2022/06/13 04:38:16;;;;;;;;;4.75;4.75;;;;;14.85;58.43;102047.25;6220507;22;46477;-81
2022/06/13 04:40:48;;;;;;;;;6.50;6.50;;;;;14.84;58.53;102050.81;6250966;22;45182;-81
2022/06/13 04:43:17;;;;;;;;;7.25;7.25;;;;;14.86;58.62;102055.22;6222258;22;45354;-81
2022/06/13 04:45:54;;;;;;;;;7.75;6.75;;;;;14.86;59.08;102056.97;6249069;22;45352;-80
2022/06/13 04:48:20;;;;;;;;;8.50;8.50;;;;;14.85;58.78;102064.03;6220617;22;47640;-80
2022/06/13 04:50:52;;;;;;;;;9.00;7.50;;;;;14.84;59.11;102056.97;6248023;22;45498;-80
2022/06/13 04:53:29;;;;;;;;;6.00;6.00;;;;;14.82;59.09;102056.09;6221054;22;45254;-80
2022/06/13 04:55:55;;;;;;;;;5.75;5.50;;;;;14.86;59.34;102057.88;6220620;22;45194;-79
2022/06/13 04:58:28;;;;;;;;;7.00;6.75;;;;;14.88;59.40;102060.50;6248083;22;46369;-81
2022/06/13 05:01:05;;;;;;;;;6.50;5.75;;;;;14.90;59.48;102064.03;6245776;22;45675;-79
2022/06/13 05:03:36;;;;;;;;;7.50;6.50;;;;;14.90;59.34;102067.56;6247707;22;45407;-79
2022/06/13 05:06:13;;;;;;;;;6.50;6.00;;;;;14.96;59.19;102069.34;6219597;22;45189;-79
2022/06/13 05:08:40;;;;;;;;;6.75;6.00;;;;;14.97;59.21;102066.69;6219958;22;46355;-78
2022/06/13 05:11:17;;;;;;;;;6.25;6.25;;;;;14.94;59.74;102068.44;6248009;22;45484;-79
2022/06/13 05:13:44;;;;;;;;;6.00;6.00;;;;;14.96;59.58;102069.34;6220014;22;45450;-79
2022/06/13 05:16:38;;;;;;;;;8.00;6.75;;;;;15.02;59.40;102073.75;6247462;22;45448;-79
2022/06/13 05:19:27;;;;;;;;;7.50;5.25;;;;;15.04;59.66;102075.53;6247566;22;45321;-79
2022/06/13 05:22:00;;;;;;;;;8.00;6.75;;;;;15.05;59.81;102071.09;6219715;22;45273;-79
2022/06/13 05:24:58;;;;;;;;;13.00;8.00;;;;;15.07;59.80;102075.50;6247900;22;45157;-79
2022/06/13 05:27:23;;;;;;;;;12.50;8.00;;;;;15.11;59.64;102081.72;6244953;22;45663;-78
2022/06/13 05:29:49;;;;;;;;;7.00;7.00;;;;;15.15;59.84;102075.50;6245549;22;46263;-79
2022/06/13 05:32:19;;;;;;;;;7.00;7.00;;;;;15.20;59.63;102084.34;6220395;22;45184;-79
2022/06/13 05:34:45;;;;;;;;;7.00;7.00;;;;;15.18;59.88;102081.72;6245039;22;45277;-79
2022/06/13 05:37:13;;;;;;;;;8.25;6.25;;;;;15.23;59.40;102081.69;6247354;22;45114;-79
2022/06/13 05:39:39;;;;;;;;;8.00;6.50;;;;;15.21;59.97;102079.06;6220000;22;46805;-79
2022/06/13 05:42:05;;;;;;;;;7.75;6.50;;;;;15.26;59.97;102084.31;6247199;22;45233;-79
2022/06/13 05:44:31;;;;;;;;;9.00;8.00;;;;;15.33;59.80;102090.53;6247387;22;45336;-79
2022/06/13 05:46:57;;;;;;;;;8.00;5.75;;;;;15.34;59.95;102074.63;6246808;22;45310;-79
2022/06/13 05:49:24;;;;;;;;;11.50;8.75;;;;;15.37;59.75;102094.91;6246473;22;46468;-79
2022/06/13 05:51:49;;;;;;;;;8.00;8.00;;;;;15.41;59.85;102097.56;6247858;22;45334;-79
2022/06/13 05:54:15;;;;;;;;;9.50;8.50;;;;;15.40;59.98;102098.47;6247733;22;45264;-79
2022/06/13 05:56:41;;;;;;;;;9.00;6.75;;;;;15.42;59.73;102085.19;6245416;22;45228;-79
2022/06/13 05:59:07;;;;;;;;;7.50;7.50;;;;;15.50;60.13;102096.66;6247616;22;45248;-80
2022/06/13 06:01:35;;;;;;;;;6.25;5.00;;;;;15.55;60.07;102102.84;6247711;22;45107;-79
2022/06/13 06:04:01;;;;;;;;;8.00;8.00;;;;;15.59;59.94;102101.09;6219533;22;45273;-79
2022/06/13 06:06:28;;;;;;;;;11.50;9.00;;;;;15.60;60.14;102101.06;6247101;22;45313;-78
2022/06/13 06:08:55;;;;;;;;;6.50;6.50;;;;;15.64;60.25;102107.28;6246953;22;45794;-79
2022/06/13 06:11:21;;;;;;;;;7.00;7.00;;;;;15.71;59.93;102110.81;6247270;22;45240;-78
2022/06/13 06:13:47;;;;;;;;;12.25;7.25;;;;;15.71;60.04;102105.50;6219725;22;45254;-78
2022/06/13 06:16:19;;;;;;;;;8.50;8.25;;;;;15.73;59.82;102101.06;6219294;22;45193;-78
2022/06/13 06:18:46;;;;;;;;;10.50;5.75;;;;;15.78;59.70;102104.59;6246474;22;46233;-78
2022/06/13 06:21:11;;;;;;;;;7.50;6.75;;;;;15.77;60.12;102108.13;6246906;22;45087;-78
2022/06/13 06:23:37;;;;;;;;;5.00;5.00;;;;;15.80;59.83;102111.69;6247315;22;45157;-79
2022/06/13 06:26:04;;;;;;;;;9.00;8.00;;;;;15.84;59.98;102116.06;6247084;22;45379;-78
2022/06/13 06:28:31;;;;;;;;;8.50;7.00;;;;;15.90;59.81;102117.81;6246877;22;45360;-79
2022/06/13 06:30:58;;;;;;;;;8.25;7.50;;;;;15.94;60.05;102113.41;6219228;22;45391;-78
2022/06/13 06:33:25;;;;;;;;;7.00;7.00;;;;;15.97;59.76;102114.25;6247112;22;45375;-78
2022/06/13 06:35:54;;;;;;;;;10.00;8.50;;;;;16.01;59.87;102118.69;6246581;22;45189;-78
2022/06/13 06:38:21;;;;;;;;;8.50;7.25;;;;;16.07;59.92;102126.63;6219519;22;48569;-78
2022/06/13 06:40:48;;;;;;;;;9.00;8.50;;;;;16.10;59.88;102128.38;6246887;22;45358;-78
2022/06/13 06:43:14;;;;;;;;;7.75;7.75;;;;;16.17;59.92;102129.22;6247323;22;45245;-78
2022/06/13 06:45:41;;;;;;;;;10.50;8.75;;;;;16.23;59.41;102129.22;6245071;22;45297;-78
2022/06/13 06:48:12;;;;;;;;;9.25;9.00;;;;;16.28;59.61;102130.09;6246830;22;45208;-78
2022/06/13 06:50:41;;;;;;;;;10.75;7.25;;;;;16.34;59.18;102131.81;6246390;22;45439;-78
2022/06/13 06:53:06;;;;;;;;;8.50;8.50;;;;;16.40;59.15;102134.44;6247815;22;45154;-79
2022/06/13 07:01:17;;;;;;;;;9.00;7.00;;;;;16.58;58.97;102138.78;6229195;22;45447;-81
2022/06/13 07:03:43;;;;;;;;;8.50;6.00;;;;;16.66;58.96;102137.81;6219940;22;45423;-80
2022/06/13 07:06:10;;;;;;;;;9.00;7.00;;;;;16.76;59.01;102141.31;6247716;22;45182;-79
2022/06/13 07:08:36;;;;;;;;;8.75;8.00;;;;;16.86;58.31;102134.16;6247543;22;45580;-79
2022/06/13 07:13:49;;;;;;;;;6.25;6.25;;;;;16.96;57.64;102136.75;6248011;22;45232;-80
2022/06/13 07:16:14;;;;;;;;;7.50;7.00;;;;;17.05;57.49;102143.75;6245804;22;45459;-80
2022/06/13 07:18:41;;;;;;;;;8.00;6.50;;;;;17.12;57.28;102133.97;6245346;22;45155;-80
2022/06/13 07:21:08;;;;;;;;;7.25;7.00;;;;;17.22;56.92;102140.09;6220245;22;45336;-80
2022/06/13 07:23:33;;;;;;;;;8.25;7.00;;;;;17.29;56.72;102134.69;6248046;22;45326;-81
2022/06/13 07:25:59;;;;;;;;;6.75;6.00;;;;;17.40;56.29;102139.91;6245853;22;45402;-80
2022/06/13 07:28:24;;;;;;;;;6.25;5.25;;;;;17.49;55.93;102142.50;6245754;22;47326;-81
2022/06/13 07:30:51;;;;;;;;;8.00;6.25;;;;;17.56;56.07;102140.63;6247515;22;45244;-81
2022/06/13 07:33:16;;;;;;;;;4.75;4.25;;;;;17.64;55.44;102142.34;6245681;22;45281;-82
2022/06/13 07:35:42;;;;;;;;;4.50;3.75;;;;;17.72;54.47;102142.28;6243522;22;45773;-82
2022/06/13 07:38:18;;;;;;;;;4.00;4.00;;;;;17.76;54.22;102135.13;6244229;22;45625;-80
2022/06/13 07:40:47;;;;;;;;;9.00;6.00;;;;;17.83;53.93;102139.50;6246498;22;45310;-80
2022/06/13 07:43:29;;;;;;;;;9.00;7.00;;;;;17.90;54.09;102140.31;6247884;22;45403;-81
2022/06/13 07:45:55;;;;;;;;;6.75;5.00;;;;;17.99;53.74;102141.09;6251000;22;45303;-84
2022/06/13 07:48:20;;;;;;;;;9.00;5.00;;;;;18.06;53.45;102137.44;6248804;22;46180;-82
2022/06/13 07:51:12;;;;;;;;;;;;;;;;;;;;;
2022/06/13 07:57:23;;;;;;;;;4.25;4.25;;;;;18.45;52.28;102137.81;6243209;22;47479;-90
2022/06/13 08:00:19;;;;;;;;;5.25;4.50;;;;;18.56;52.29;102139.47;6249209;22;45402;-91
2022/06/13 08:03:11;;;;;;;;;5.67;4.00;;;;;18.71;51.94;102142.78;6155972;23;45449;-93
2022/06/13 08:05:36;;;;;;;;;6.00;5.00;;;;;18.83;51.53;102148.88;6157561;23;44669;-95
2022/06/13 08:08:01;;;;;;;;;8.00;5.75;;;;;18.94;51.18;102144.22;6175513;22;45521;-94
2022/06/13 08:10:27;;;;;;;;;3.67;3.67;;;;;19.04;50.70;102144.97;6219722;22;47107;-94
2022/06/13 08:12:55;;;;;;;;;6.75;6.75;;;;;19.10;50.38;102140.41;6223549;22;45182;-95
2022/06/13 08:15:24;;;;;;;;;5.67;5.67;;;;;19.20;50.40;102138.47;6227055;22;45368;-92
2022/06/13 08:17:49;;;;;;;;;3.50;3.00;;;;;19.31;49.51;102143.63;6219102;22;45440;-92
2022/06/13 08:20:15;;;;;;;;;9.00;3.67;;;;;19.43;48.55;102146.06;6218835;22;47042;-94
2022/06/13 08:47:18;;;;;;;;;4.00;3.33;;;;;20.45;44.97;102150.28;6196473;22;46889;-82
2022/06/13 08:50:12;;;;;;;;;4.00;3.00;;;;;20.53;44.09;102142.06;6311008;22;45181;-85
2022/06/13 08:52:50;;;;;;;;;5.67;4.67;;;;;20.59;44.04;102136.63;6275495;22;47673;-82
2022/06/13 08:55:25;;;;;;;;;3.33;2.33;;;;;20.67;43.48;102138.19;6278606;22;45716;-89
2022/06/13 08:58:00;;;;;;;;;3.67;2.67;;;;;20.74;43.47;102143.41;6283770;22;45264;-91
2022/06/13 09:01:29;;;;;;;;;6.67;3.00;;;;;20.79;42.91;102138.81;6283109;22;45986;-92
2022/06/13 09:04:20;;;;;;;;;4.33;4.00;;;;;20.83;42.60;102140.53;6190435;23;46227;-94
2022/06/13 09:07:17;;;;;;;;;5.00;3.33;;;;;20.88;42.73;102142.16;6283619;22;45593;-90
2022/06/13 09:10:06;;;;;;;;;5.00;4.00;;;;;20.94;42.56;102146.50;6283557;22;45447;-92
2022/06/13 09:13:03;;;;;;;;;2.33;1.33;;;;;20.96;42.18;102138.44;6310582;22;45426;-89
2022/06/13 09:15:55;;;;;;;;;7.00;3.00;;;;;20.96;41.59;102141.97;6202322;22;46909;-91
2022/06/13 09:18:40;;;;;;;;;4.00;2.67;;;;;21.02;41.60;102144.50;6268910;22;45778;-88
2022/06/13 09:21:57;;;;;;;;;5.67;3.00;;;;;21.12;41.68;102142.47;6281692;22;45550;-88
2022/06/13 09:24:40;;;;;;;;;3.33;2.67;;;;;21.25;41.67;102141.25;6281696;22;45296;-87
2022/06/13 09:27:25;;;;;;;;;5.00;3.33;;;;;21.33;41.55;102136.56;6308306;22;45208;-86
2022/06/13 09:30:05;;;;;;;;;3.00;3.00;;;;;21.39;41.28;102145.41;6281766;22;45412;-84
2022/06/13 09:32:38;;;;;;;;;2.67;2.67;;;;;21.43;40.94;102147.94;6281702;22;45410;-79
2022/06/13 09:35:19;;;;;;;;;2.67;2.67;;;;;21.46;40.93;102141.63;6282098;22;45445;-86
2022/06/13 09:38:08;;;;;;;;;6.33;4.00;;;;;21.48;40.42;102140.66;6280461;22;47029;-86
2022/06/13 09:40:55;;;;;;;;;3.00;2.00;;;;;21.54;40.13;102147.66;6309069;22;45379;-83
2022/06/13 09:43:46;;;;;;;;;2.67;2.67;;;;;21.58;39.76;102142.19;6282015;22;45272;-85
2022/06/13 09:46:45;;;;;;;;;4.00;4.00;;;;;21.62;39.26;102142.97;6281430;22;45443;-89
2022/06/13 09:49:36;;;;;;;;;2.00;2.00;;;;;21.63;38.97;102136.69;6257732;22;47199;-87
2022/06/13 09:52:30;;;;;;;;;3.00;3.00;;;;;21.68;38.82;102141.91;6282003;22;45208;-83
2022/06/13 09:55:10;;;;;;;;;3.33;3.00;;;;;21.75;38.25;102143.50;6281292;22;45339;-87
2022/06/13 09:57:39;;;;;;;;;3.00;3.00;;;;;21.81;38.09;102143.31;6283166;22;45747;-89
2022/06/13 10:00:23;;;;;;;;;4.00;4.00;;;;;21.85;37.94;102142.31;6280330;22;47165;-85
2022/06/13 10:03:17;;;;;;;;;2.67;2.67;;;;;21.88;37.58;102144.03;6310719;22;45351;-84
2022/06/13 10:06:09;;;;;;;;;4.33;3.00;;;;;21.91;37.93;102138.59;6251375;22;45415;-83
2022/06/13 10:08:37;;;;;;;;;6.67;3.00;;;;;21.90;36.81;102135.03;6311631;22;45363;-90
2022/06/13 10:15:05;;;;;;;;;2.33;2.00;;;;;21.98;37.24;102140.19;6320278;22;44712;-93
2022/06/13 10:18:25;;;;;;;;;2.67;2.67;;;;;22.01;37.03;102124.88;6295627;22;45176;-93
2022/06/13 10:21:03;;;;;;;;;3.00;2.00;;;;;22.06;37.10;102130.09;6185488;23;45209;-88
2022/06/13 10:23:40;;;;;;;;;3.00;3.00;;;;;22.11;37.22;102130.84;6222680;22;47761;-91
2022/06/13 10:26:44;;;;;;;;;2.00;2.00;;;;;22.14;36.93;102132.56;6285528;22;45172;-92
2022/06/13 10:29:28;;;;;;;;;3.00;3.00;;;;;22.22;37.16;102127.88;6267207;22;45426;-89
2022/06/13 10:32:05;;;;;;;;;2.00;2.00;;;;;22.34;37.10;102127.47;6288780;22;44758;-90
2022/06/13 10:35:04;;;;;;;;;2.00;2.00;;;;;22.45;37.34;102133.44;6314810;22;45475;-86
2022/06/13 10:38:04;;;;;;;;;63.25;50.25;;;;;22.58;37.22;102128.53;6313448;22;45347;-83
2022/06/13 10:40:30;;;;;;;;;4.33;4.33;;;;;22.64;36.80;102120.28;6291164;22;45197;-82
2022/06/13 10:42:57;;;;;;;;;6.00;6.00;;;;;22.75;36.54;102117.25;6313830;22;45453;-86
2022/06/13 10:45:23;;;;;;;;;5.00;4.33;;;;;22.93;36.66;102120.25;6286696;22;48036;-90
2022/06/13 10:48:21;;;;;;;;;7.00;4.00;;;;;23.15;35.83;102124.03;6310140;22;45358;-88
2022/06/13 10:50:57;;;;;;;;;3.33;2.00;;;;;23.33;35.66;102125.16;6286747;22;45196;-90
2022/06/13 10:53:43;;;;;;;;;5.00;3.67;;;;;23.48;35.34;102116.56;6284201;22;45830;-89
2022/06/13 10:56:15;;;;;;;;;3.67;3.67;;;;;23.60;35.49;102127.81;6286041;22;48044;-90
2022/06/13 10:58:50;;;;;;;;;2.33;2.33;;;;;23.66;34.75;102114.16;6312339;22;45384;-90
2022/06/13 11:01:19;;;;;;;;;3.00;2.00;;;;;23.71;34.86;102105.03;6289775;22;45462;-90
2022/06/13 11:04:10;;;;;;;;;5.00;4.00;;;;;23.82;35.10;102111.78;6312660;22;45219;-90
2022/06/13 11:07:01;;;;;;;;;6.00;4.00;;;;;23.89;35.11;102114.19;6288416;22;47162;-88
2022/06/13 11:09:38;;;;;;;;;3.67;3.67;;;;;23.96;34.35;102113.03;6311302;22;45304;-89
2022/06/13 11:12:17;;;;;;;;;2.00;2.00;;;;;24.05;34.30;102117.19;6288445;22;45381;-89
2022/06/13 11:23:20;;;;;;;;;3.67;2.00;;;;;24.49;33.58;102113.75;6309612;22;45284;-86
2022/06/13 11:25:56;;;;;;;;;3.00;3.00;;;;;24.51;33.33;102111.84;6312034;22;45280;-85
2022/06/13 11:28:25;;;;;;;;;2.33;2.00;;;;;24.52;33.16;102111.78;6282248;22;47070;-85
2022/06/13 11:31:21;;;;;;;;;2.00;2.00;;;;;24.57;33.48;102108.94;6283465;22;45355;-87
2022/06/13 11:33:47;;;;;;;;;5.00;5.00;;;;;24.61;33.47;102107.84;6282885;22;45272;-87
2022/06/13 11:36:15;;;;;;;;;2.33;2.33;;;;;24.63;32.93;102106.84;6282417;22;45473;-86
2022/06/13 11:38:52;;;;;;;;;2.00;2.00;;;;;24.70;32.62;102106.59;6282714;22;47679;-87
2022/06/13 11:41:18;;;;;;;;;3.00;2.67;;;;;24.76;32.54;102107.22;6310113;22;45322;-86
2022/06/13 11:44:00;;;;;;;;;4.67;2.67;;;;;24.79;32.62;102099.00;6311961;22;45642;-86
2022/06/13 11:46:28;;;;;;;;;2.00;2.00;;;;;24.81;32.07;102098.97;6309497;22;45211;-87
2022/06/13 11:48:56;;;;;;;;;2.67;2.67;;;;;24.81;32.21;102089.06;6284979;22;47065;-86
2022/06/13 11:51:26;;;;;;;;;3.00;3.00;;;;;24.89;32.69;102096.81;6283021;22;45960;-87
2022/06/13 11:53:55;;;;;;;;;3.67;3.67;;;;;24.88;32.51;102092.34;6309925;22;45320;-86
2022/06/13 11:56:27;;;;;;;;;4.33;3.33;;;;;24.89;32.60;102094.13;6309345;22;45330;-87
2022/06/13 11:58:55;;;;;;;;;2.33;2.33;;;;;24.93;32.22;102093.03;6311170;22;46072;-86
2022/06/13 12:01:29;;;;;;;;;3.33;3.00;;;;;24.94;31.83;102088.50;6308876;22;45353;-86
2022/06/13 12:04:07;;;;;;;;;2.00;2.00;;;;;24.95;31.96;102090.28;6283064;22;45248;-86
2022/06/13 12:06:46;;;;;;;;;3.67;2.67;;;;;25.00;32.91;102085.59;6280913;22;45535;-87
2022/06/13 12:09:24;;;;;;;;;3.00;3.00;;;;;25.15;32.42;102084.94;6311568;22;45408;-87
2022/06/13 12:12:00;;;;;;;;;4.33;3.67;;;;;25.30;32.18;102084.25;6281657;22;45366;-87
2022/06/13 12:14:27;;;;;;;;;2.67;2.67;;;;;25.35;32.12;102073.28;6282381;22;45300;-87
2022/06/13 12:17:07;;;;;;;;;3.67;2.67;;;;;25.40;31.64;102078.47;6282168;22;45755;-87
2022/06/13 12:19:47;;;;;;;;;3.67;3.00;;;;;25.45;31.39;102080.03;6289818;22;47838;-87
2022/06/13 12:22:31;;;;;;;;;5.00;3.00;;;;;25.50;31.39;102071.69;6285428;22;45253;-87
2022/06/13 12:25:14;;;;;;;;;2.00;2.00;;;;;25.58;31.12;102072.25;6286003;22;45607;-86
2022/06/13 12:28:05;;;;;;;;;3.00;2.67;;;;;25.64;31.11;102069.28;6283924;22;45465;-84
2022/06/13 12:30:59;;;;;;;;;2.00;2.00;;;;;25.78;30.91;102060.53;6281634;22;46952;-89
2022/06/13 12:33:54;;;;;;;;;2.00;2.00;;;;;25.92;31.41;102059.91;6309581;22;45747;-86
2022/06/13 12:36:25;;;;;;;;;2.33;2.33;;;;;26.09;30.96;102056.41;6282250;22;45199;-86
2022/06/13 12:39:09;;;;;;;;;2.33;2.33;;;;;26.18;30.96;102053.28;6310987;22;45424;-85
2022/06/13 12:41:37;;;;;;;;;2.33;2.33;;;;;26.25;30.51;102052.03;6285885;22;47447;-88
2022/06/13 12:44:42;;;;;;;;;3.00;3.00;;;;;26.33;30.25;102049.84;6283950;22;45173;-88
2022/06/13 12:47:39;;;;;;;;;2.33;2.33;;;;;26.46;30.24;102050.09;6285939;22;45437;-91
2022/06/13 12:50:14;;;;;;;;;4.33;3.33;;;;;26.57;29.47;102046.88;6282781;22;45141;-90
2022/06/13 12:53:07;;;;;;;;;3.67;2.67;;;;;26.62;29.43;102042.13;6313995;22;46160;-89
2022/06/13 12:55:56;;;;;;;;;5.33;5.00;;;;;26.70;29.32;102045.31;6284819;22;45371;-89
2022/06/13 12:58:29;;;;;;;;;5.00;3.00;;;;;26.68;29.66;102052.66;6283976;22;45510;-89